createdAt,value
2022-12-04T00:01:40.307Z,100675.66
2022-12-04T00:04:10.358Z,100682.41
2022-12-04T00:06:38.380Z,100689.38
2022-12-04T00:09:06.980Z,100680.81
2022-12-04T00:11:35.794Z,100687.87
2022-12-04T00:14:07.266Z,100689.84
2022-12-04T00:16:36.352Z,100685.69
2022-12-04T00:19:05.461Z,100685.78
2022-12-04T00:21:33.654Z,100681.72
2022-12-04T00:24:02.772Z,100675.56
2022-12-04T00:26:31.337Z,100679.81
2022-12-04T00:28:59.782Z,100682.53
2022-12-04T00:31:29.452Z,100692.75
2022-12-04T00:33:58.544Z,100681.53
2022-12-04T00:36:28.535Z,100701.84
2022-12-04T00:38:59.348Z,100693.84
2022-12-04T00:41:29.743Z,100689.38
2022-12-04T00:43:58.635Z,100693.69
2022-12-04T00:46:27.146Z,100692.19
2022-12-04T00:48:55.628Z,100691.03
2022-12-04T00:51:25.274Z,100687.53
2022-12-04T00:53:54.024Z,100691.28
2022-12-04T00:56:25.309Z,100688.03
2022-12-04T00:58:56.033Z,100680.25
2022-12-04T01:01:26.024Z,100687.13
2022-12-04T01:03:55.257Z,100684.78
2022-12-04T01:06:32.148Z,100672.66
2022-12-04T01:09:04.810Z,100686.38
2022-12-04T01:11:33.261Z,100678.97
2022-12-04T01:14:02.305Z,100668.66
2022-12-04T01:16:36.927Z,100677.37
2022-12-04T01:19:08.824Z,100677.72
2022-12-04T01:21:37.663Z,100678.44
2022-12-04T01:24:07.110Z,100672.22
2022-12-04T01:26:35.686Z,100673.91
2022-12-04T01:29:04.208Z,100674.87
2022-12-04T01:31:32.940Z,100680.72
2022-12-04T01:34:01.339Z,100673.81
2022-12-04T01:36:30.201Z,100677.97
2022-12-04T01:38:59.229Z,100677.06
2022-12-04T01:41:30.300Z,100679.31
2022-12-04T01:44:10.495Z,100671.75
2022-12-04T01:46:43.406Z,100676.16
2022-12-04T01:49:19.937Z,100674.16
2022-12-04T01:52:15.776Z,100673.59
2022-12-04T01:54:50.022Z,100677.94
2022-12-04T01:57:22.189Z,100683.06
2022-12-04T02:00:12.430Z,100683.97
2022-12-04T02:02:43.489Z,100689.13
2022-12-04T02:05:14.839Z,100696.59
2022-12-04T02:07:46.490Z,100698.19
2022-12-04T02:10:17.371Z,100703.94
2022-12-04T02:13:18.731Z,100685.00
2022-12-04T02:16:25.937Z,100675.25
2022-12-04T02:18:59.491Z,100673.94
2022-12-04T02:21:38.117Z,100676.19
2022-12-04T02:24:25.336Z,100664.91
2022-12-04T02:27:01.308Z,100659.06
2022-12-04T02:30:10.019Z,100666.03
2022-12-04T02:32:50.808Z,100667.69
2022-12-04T02:35:24.465Z,100671.13
2022-12-04T02:38:32.877Z,100669.47
2022-12-04T02:41:10.991Z,100668.78
2022-12-04T02:43:51.038Z,100663.44
2022-12-04T02:46:27.098Z,100665.31
2022-12-04T02:48:59.913Z,100667.87
2022-12-04T02:51:32.169Z,100661.72
2022-12-04T02:54:07.808Z,100665.38
2022-12-04T02:56:42.797Z,100672.44
2022-12-04T02:59:35.214Z,100670.44
2022-12-04T03:02:12.631Z,100666.72
2022-12-04T03:04:42.503Z,100664.94
2022-12-04T03:07:15.243Z,100670.87
2022-12-04T03:09:48.703Z,100670.09
2022-12-04T03:12:38.452Z,100674.25
2022-12-04T03:15:16.648Z,100670.09
2022-12-04T03:17:55.245Z,100669.53
2022-12-04T03:20:24.299Z,100672.84
2022-12-04T03:22:59.725Z,100663.72
2022-12-04T03:25:37.687Z,100656.97
2022-12-04T03:28:17.655Z,100657.25
2022-12-04T03:30:54.400Z,100651.50
2022-12-04T03:33:32.092Z,100653.56
2022-12-04T03:36:37.981Z,100645.84
2022-12-04T03:39:17.994Z,100648.66
2022-12-04T03:41:59.607Z,100645.41
2022-12-04T03:44:46.706Z,100637.53
2022-12-04T03:47:29.462Z,100648.06
2022-12-04T03:50:01.476Z,100660.22
2022-12-04T03:52:47.629Z,100662.62
2022-12-04T03:55:27.434Z,100661.53
2022-12-04T03:58:01.735Z,100663.50
2022-12-04T04:00:32.857Z,100666.09
2022-12-04T04:03:10.871Z,100664.19
2022-12-04T04:05:46.680Z,100655.47
2022-12-04T04:08:29.585Z,100664.03
2022-12-04T04:11:13.833Z,100661.44
2022-12-04T04:14:15.775Z,100662.44
2022-12-04T04:17:08.040Z,100663.94
2022-12-04T04:19:57.515Z,100663.22
2022-12-04T04:22:45.947Z,100661.28
2022-12-04T04:25:18.138Z,100655.41
2022-12-04T04:27:57.820Z,100657.28
2022-12-04T04:30:29.515Z,100671.06
2022-12-04T04:33:16.794Z,100662.09
2022-12-04T04:35:45.089Z,100667.00
2022-12-04T04:38:28.606Z,100669.00
2022-12-04T04:41:05.737Z,100661.28
2022-12-04T04:43:54.646Z,100672.88
2022-12-04T04:46:36.156Z,100676.50
2022-12-04T04:49:08.935Z,100684.00
2022-12-04T04:51:37.833Z,100679.16
2022-12-04T04:54:10.418Z,100670.47
2022-12-04T04:56:47.572Z,100666.72
2022-12-04T04:59:16.174Z,100659.84
2022-12-04T05:01:46.973Z,100667.72
2022-12-04T05:04:15.210Z,100664.75
2022-12-04T05:06:43.314Z,100660.84
2022-12-04T05:09:11.682Z,100662.56
2022-12-04T05:11:39.805Z,100671.97
2022-12-04T05:14:09.560Z,100667.41
2022-12-04T05:16:39.664Z,100670.16
2022-12-04T05:19:26.827Z,100663.84
2022-12-04T05:21:57.122Z,100673.16
2022-12-04T05:24:25.152Z,100660.22
2022-12-04T05:26:53.190Z,100671.00
2022-12-04T05:29:21.462Z,100658.28
2022-12-04T05:31:49.559Z,100662.44
2022-12-04T05:34:17.822Z,100662.78
2022-12-04T05:36:46.243Z,100666.09
2022-12-04T05:39:14.374Z,100659.22
2022-12-04T05:41:42.591Z,100661.72
2022-12-04T05:44:10.905Z,100660.84
2022-12-04T05:46:39.179Z,100663.44
2022-12-04T05:49:07.874Z,100664.50
2022-12-04T05:51:36.517Z,100659.22
2022-12-04T05:54:04.580Z,100662.62
2022-12-04T05:56:32.607Z,100656.66
2022-12-04T05:59:01.189Z,100662.62
2022-12-04T06:01:29.226Z,100672.91
2022-12-04T06:03:57.644Z,100686.47
2022-12-04T06:06:26.222Z,100682.31
2022-12-04T06:08:58.752Z,100685.88
2022-12-04T06:11:29.945Z,100677.00
2022-12-04T06:14:00.174Z,100682.31
2022-12-04T06:16:32.147Z,100678.06
2022-12-04T06:19:04.397Z,100669.66
2022-12-04T06:21:35.103Z,100675.75
2022-12-04T06:24:03.906Z,100677.25
2022-12-04T06:26:32.498Z,100669.81
2022-12-04T06:29:01.615Z,100680.03
2022-12-04T06:31:30.119Z,100673.31
2022-12-04T06:33:58.876Z,100680.81
2022-12-04T06:36:27.253Z,100685.19
2022-12-04T06:38:57.211Z,100683.22
2022-12-04T06:41:27.359Z,100686.03
2022-12-04T06:43:56.420Z,100679.88
2022-12-04T06:46:33.648Z,100676.38
2022-12-04T06:49:02.918Z,100684.03
2022-12-04T06:51:35.457Z,100684.97
2022-12-04T06:54:04.109Z,100697.87
2022-12-04T06:56:33.132Z,100688.28
2022-12-04T06:59:03.710Z,100687.53
2022-12-04T07:01:34.131Z,100683.38
2022-12-04T07:04:04.335Z,100682.97
2022-12-04T07:06:35.084Z,100680.25
2022-12-04T07:09:08.123Z,100677.72
2022-12-04T07:11:37.807Z,100678.56
2022-12-04T07:14:06.073Z,100672.44
2022-12-04T07:16:40.240Z,100671.75
2022-12-04T07:19:11.505Z,100684.31
2022-12-04T07:21:40.063Z,100680.50
2022-12-04T07:24:13.859Z,100684.25
2022-12-04T07:26:42.280Z,100683.91
2022-12-04T07:29:10.978Z,100688.72
2022-12-04T07:31:44.386Z,100682.41
2022-12-04T07:34:13.194Z,100687.97
2022-12-04T07:36:41.335Z,100689.97
2022-12-04T07:39:09.711Z,100681.16
2022-12-04T07:41:38.410Z,100690.56
2022-12-04T07:44:07.283Z,100693.47
2022-12-04T07:46:35.945Z,100695.53
2022-12-04T07:49:04.374Z,100686.62
2022-12-04T07:51:32.498Z,100684.31
2022-12-04T07:54:03.835Z,100692.56
2022-12-04T07:56:33.317Z,100687.87
2022-12-04T07:59:01.768Z,100692.09
2022-12-04T08:01:30.921Z,100691.66
2022-12-04T08:04:00.811Z,100694.53
2022-12-04T08:06:30.011Z,100681.97
2022-12-04T08:08:58.110Z,100693.56
2022-12-04T08:11:28.196Z,100695.91
2022-12-04T08:14:00.911Z,100690.38
2022-12-04T08:16:31.594Z,100686.62
2022-12-04T08:19:00.143Z,100693.56
2022-12-04T08:21:35.198Z,100684.34
2022-12-04T08:24:03.906Z,100680.06
2022-12-04T08:26:33.844Z,100683.75
2022-12-04T08:29:02.838Z,100697.28
2022-12-04T08:31:33.293Z,100700.19
2022-12-04T08:34:03.945Z,100698.25
2022-12-04T08:36:33.113Z,100683.72
2022-12-04T08:39:01.243Z,100683.19
2022-12-04T08:41:29.384Z,100681.63
2022-12-04T08:43:58.100Z,100678.59
2022-12-04T08:46:27.617Z,100673.12
2022-12-04T08:48:56.654Z,100668.69
2022-12-04T08:51:28.225Z,100667.34
2022-12-04T08:54:03.121Z,100684.44
2022-12-04T08:56:32.611Z,100679.25
2022-12-04T08:59:01.859Z,100678.50
2022-12-04T09:01:30.723Z,100677.06
2022-12-04T09:03:59.405Z,100678.53
2022-12-04T09:06:27.656Z,100679.78
2022-12-04T09:08:56.844Z,100686.25
2022-12-04T09:11:27.785Z,100687.50
2022-12-04T09:13:56.191Z,100678.94
2022-12-04T09:16:26.226Z,100680.81
2022-12-04T09:18:55.798Z,100666.19
2022-12-04T09:21:24.977Z,100664.81
2022-12-04T09:23:53.641Z,100665.34
2022-12-04T09:26:30.598Z,100656.34
2022-12-04T09:29:01.448Z,100670.19
2022-12-04T09:31:31.047Z,100664.59
2022-12-04T09:34:01.154Z,100661.09
2022-12-04T09:36:29.627Z,100664.53
2022-12-04T09:38:58.536Z,100657.37
2022-12-04T09:41:32.947Z,100658.41
2022-12-04T09:44:02.087Z,100652.22
2022-12-04T09:46:37.746Z,100654.19
2022-12-04T09:49:22.007Z,100652.69
2022-12-04T09:51:54.524Z,100651.34
2022-12-04T09:54:33.183Z,100647.75
2022-12-04T09:57:15.162Z,100638.84
2022-12-04T09:59:45.976Z,100644.53
2022-12-04T10:02:36.061Z,100627.66
2022-12-04T10:05:06.335Z,100627.94
2022-12-04T10:08:03.329Z,100615.38
2022-12-04T10:10:41.522Z,100613.00
2022-12-04T10:13:29.653Z,100627.25
2022-12-04T10:16:19.169Z,100624.66
2022-12-04T10:18:53.326Z,100613.22
2022-12-04T10:21:47.877Z,100606.50
2022-12-04T10:24:49.985Z,100594.13
2022-12-04T10:27:42.107Z,100593.09
2022-12-04T10:30:13.816Z,100598.16
2022-12-04T10:32:45.199Z,100593.72
2022-12-04T10:35:30.590Z,100585.03
2022-12-04T10:38:10.754Z,100596.94
2022-12-04T10:40:48.951Z,100593.81
2022-12-04T10:43:36.111Z,100585.03
2022-12-04T10:46:05.975Z,100587.09
2022-12-04T10:48:41.549Z,100586.84
2022-12-04T10:51:21.482Z,100585.94
2022-12-04T10:53:51.207Z,100572.78
2022-12-04T10:56:24.884Z,100567.16
2022-12-04T10:59:04.885Z,100567.66
2022-12-04T11:01:34.416Z,100563.28
2022-12-04T11:04:08.183Z,100553.19
2022-12-04T11:06:36.672Z,100551.19
2022-12-04T11:09:05.345Z,100553.16
2022-12-04T11:11:35.256Z,100535.87
2022-12-04T11:14:22.375Z,100534.66
2022-12-04T11:17:01.873Z,100523.81
2022-12-04T11:19:33.582Z,100529.16
2022-12-04T11:22:19.981Z,100518.13
2022-12-04T11:24:55.293Z,100518.66
2022-12-04T11:27:31.599Z,100525.78
2022-12-04T11:30:09.850Z,100517.09
2022-12-04T11:32:38.970Z,100494.94
2022-12-04T11:35:22.303Z,100506.75
2022-12-04T11:37:57.916Z,100494.41
2022-12-04T11:40:27.734Z,100499.56
2022-12-04T11:43:13.962Z,100497.13
2022-12-04T11:45:42.385Z,100492.38
2022-12-04T11:48:18.339Z,100486.84
2022-12-04T11:51:08.841Z,100494.91
2022-12-04T11:53:50.514Z,100503.84
2022-12-04T11:56:29.882Z,100483.34
2022-12-04T11:59:31.163Z,100489.62
2022-12-04T12:02:05.395Z,100471.78
2022-12-04T12:05:15.518Z,100485.50
2022-12-04T12:07:56.406Z,100475.03
2022-12-04T12:10:33.124Z,100486.03
2022-12-04T12:13:33.447Z,100478.06
2022-12-04T12:16:17.517Z,100477.78
2022-12-04T12:18:55.561Z,100459.94
2022-12-04T12:22:02.068Z,100464.50
2022-12-04T12:25:02.286Z,100470.72
2022-12-04T12:27:33.942Z,100465.97
2022-12-04T12:30:30.534Z,100473.75
2022-12-04T12:33:29.005Z,100472.59
2022-12-04T12:36:08.311Z,100473.94
2022-12-04T12:38:48.836Z,100471.34
2022-12-04T12:41:44.153Z,100478.16
2022-12-04T12:44:20.387Z,100469.22
2022-12-04T12:46:49.873Z,100474.63
2022-12-04T12:49:44.945Z,100460.25
2022-12-04T12:52:17.443Z,100459.66
2022-12-04T12:54:57.925Z,100470.94
2022-12-04T12:57:43.210Z,100465.97
2022-12-04T13:00:20.646Z,100472.50
2022-12-04T13:02:59.374Z,100471.75
2022-12-04T13:05:35.841Z,100464.84
2022-12-04T13:08:53.336Z,100459.16
2022-12-04T13:11:25.450Z,100447.84
2022-12-04T13:14:03.303Z,100457.47
2022-12-04T13:16:48.497Z,100458.31
2022-12-04T13:19:25.124Z,100451.25
2022-12-04T13:22:15.106Z,100443.59
2022-12-04T13:24:48.975Z,100453.97
2022-12-04T13:27:38.043Z,100450.66
2022-12-04T13:30:30.819Z,100442.75
2022-12-04T13:33:32.926Z,100455.41
2022-12-04T13:36:03.872Z,100459.75
2022-12-04T13:38:53.822Z,100462.44
2022-12-04T13:41:28.237Z,100458.81
2022-12-04T13:43:59.681Z,100468.78
2022-12-04T13:46:42.420Z,100468.78
2022-12-04T13:49:17.261Z,100480.09
2022-12-04T13:51:47.464Z,100478.41
2022-12-04T13:54:15.696Z,100471.59
2022-12-04T13:56:46.888Z,100474.28
2022-12-04T13:59:28.040Z,100483.09
2022-12-04T14:02:03.480Z,100474.09
2022-12-04T14:04:45.550Z,100486.94
2022-12-04T14:07:29.482Z,100485.59
2022-12-04T14:10:04.572Z,100476.19
2022-12-04T14:12:37.135Z,100479.69
2022-12-04T14:15:07.761Z,100476.41
2022-12-04T14:17:39.920Z,100479.62
2022-12-04T14:20:21.983Z,100483.75
2022-12-04T14:22:50.517Z,100481.37
2022-12-04T14:25:18.892Z,100491.00
2022-12-04T14:27:53.482Z,100500.00
2022-12-04T14:30:33.225Z,100494.84
2022-12-04T14:33:19.037Z,100488.75
2022-12-04T14:36:05.331Z,100488.00
2022-12-04T14:38:34.245Z,100488.22
2022-12-04T14:41:03.751Z,100484.50
2022-12-04T14:43:40.781Z,100491.44
2022-12-04T14:46:38.031Z,100488.66
2022-12-04T14:49:13.269Z,100490.28
2022-12-04T14:51:52.938Z,100498.25
2022-12-04T14:54:24.062Z,100500.12
2022-12-04T14:57:14.931Z,100488.84
2022-12-04T14:59:52.455Z,100495.88
2022-12-04T15:02:34.826Z,100499.41
2022-12-04T15:05:03.722Z,100501.16
2022-12-04T15:07:33.208Z,100495.16
2022-12-04T15:10:30.616Z,100499.41
2022-12-04T15:12:59.415Z,100500.44
2022-12-04T15:15:30.327Z,100501.28
2022-12-04T15:18:19.289Z,100509.03
2022-12-04T15:20:50.471Z,100504.06
2022-12-04T15:23:28.610Z,100514.31
2022-12-04T15:25:58.930Z,100507.69
2022-12-04T15:28:44.148Z,100511.00
2022-12-04T15:31:32.625Z,100510.19
2022-12-04T15:34:09.522Z,100515.47
2022-12-04T15:36:40.617Z,100504.16
2022-12-04T15:39:15.438Z,100501.56
2022-12-04T15:41:43.944Z,100502.19
2022-12-04T15:44:59.195Z,100493.63
2022-12-04T15:47:36.612Z,100492.06
2022-12-04T15:50:20.374Z,100502.59
2022-12-04T15:52:54.915Z,100506.03
2022-12-04T15:55:25.403Z,100505.94
2022-12-04T15:58:06.804Z,100513.91
2022-12-04T16:00:40.453Z,100507.16
2022-12-04T16:03:46.655Z,100517.50
2022-12-04T16:06:21.728Z,100515.75
2022-12-04T16:08:56.581Z,100512.44
2022-12-04T16:11:31.008Z,100504.69
2022-12-04T16:14:08.501Z,100511.59
2022-12-04T16:16:42.391Z,100507.44
2022-12-04T16:19:33.583Z,100509.41
2022-12-04T16:22:18.244Z,100517.69
2022-12-04T16:24:50.828Z,100516.84
2022-12-04T16:27:22.879Z,100516.13
2022-12-04T16:29:52.939Z,100518.09
2022-12-04T16:32:24.835Z,100522.22
2022-12-04T16:34:53.628Z,100518.84
2022-12-04T16:37:23.218Z,100522.03
2022-12-04T16:39:52.211Z,100515.94
2022-12-04T16:42:23.863Z,100522.94
2022-12-04T16:44:52.852Z,100514.47
2022-12-04T16:47:24.625Z,100513.44
2022-12-04T16:49:54.792Z,100514.81
2022-12-04T16:52:23.399Z,100504.38
2022-12-04T16:54:51.941Z,100523.41
2022-12-04T16:57:20.425Z,100523.78
2022-12-04T16:59:48.918Z,100520.34
2022-12-04T17:02:25.478Z,100515.09
2022-12-04T17:04:57.919Z,100515.94
2022-12-04T17:07:26.579Z,100512.25
2022-12-04T17:09:56.243Z,100515.28
2022-12-04T17:12:24.687Z,100501.53
2022-12-04T17:14:55.291Z,100520.56
2022-12-04T17:17:24.005Z,100505.25
2022-12-04T17:19:52.991Z,100517.38
2022-12-04T17:22:26.530Z,100523.62
2022-12-04T17:24:57.283Z,100516.78
2022-12-04T17:27:27.685Z,100518.63
2022-12-04T17:29:56.305Z,100517.06
2022-12-04T17:32:24.796Z,100525.94
2022-12-04T17:34:53.793Z,100519.44
2022-12-04T17:37:23.099Z,100524.19
2022-12-04T17:39:51.411Z,100524.59
2022-12-04T17:42:19.962Z,100517.47
2022-12-04T17:44:48.806Z,100530.31
2022-12-04T17:47:18.321Z,100530.41
2022-12-04T17:49:46.544Z,100528.00
2022-12-04T17:52:15.552Z,100516.09
2022-12-04T17:54:43.599Z,100525.84
2022-12-04T17:57:12.327Z,100522.50
2022-12-04T17:59:41.975Z,100523.47
2022-12-04T18:02:11.405Z,100520.25
2022-12-04T18:04:40.886Z,100531.00
2022-12-04T18:07:09.627Z,100517.56
2022-12-04T18:09:38.123Z,100527.06
2022-12-04T18:12:06.704Z,100531.41
2022-12-04T18:14:35.233Z,100520.56
2022-12-04T18:17:04.387Z,100529.94
2022-12-04T18:19:33.372Z,100538.81
2022-12-04T18:22:01.988Z,100523.41
2022-12-04T18:24:30.259Z,100535.41
2022-12-04T18:26:59.064Z,100542.53
2022-12-04T18:29:27.517Z,100528.06
2022-12-04T18:31:56.711Z,100544.19
2022-12-04T18:34:25.722Z,100538.22
2022-12-04T18:36:53.790Z,100543.50
2022-12-04T18:39:24.291Z,100548.66
2022-12-04T18:41:57.221Z,100549.69
2022-12-04T18:44:26.129Z,100550.41
2022-12-04T18:46:54.856Z,100545.13
2022-12-04T18:49:23.412Z,100546.25
2022-12-04T18:51:51.814Z,100543.50
2022-12-04T18:54:24.080Z,100542.94
2022-12-04T18:56:52.671Z,100549.03
2022-12-04T18:59:24.054Z,100549.78
2022-12-04T19:01:56.498Z,100538.91
2022-12-04T19:04:25.745Z,100539.50
2022-12-04T19:06:56.071Z,100544.50
2022-12-04T19:09:54.254Z,100540.38
2022-12-04T19:12:16.685Z,100547.47
2022-12-04T19:14:45.566Z,100535.00
2022-12-04T19:17:16.956Z,100548.13
2022-12-04T19:19:45.734Z,100548.13
2022-12-04T19:22:15.627Z,100549.25
2022-12-04T19:24:44.072Z,100546.66
2022-12-04T19:27:13.102Z,100546.56
2022-12-04T19:29:43.226Z,100544.88
2022-12-04T19:32:12.843Z,100548.31
2022-12-04T19:34:41.698Z,100550.91
2022-12-04T19:37:11.751Z,100550.91
2022-12-04T19:39:39.875Z,100552.03
2022-12-04T19:42:08.911Z,100546.13
2022-12-04T19:44:48.539Z,100552.09
2022-12-04T19:47:18.910Z,100552.84
2022-12-04T19:49:47.537Z,100551.81
2022-12-04T19:52:15.925Z,100548.94
2022-12-04T19:54:44.923Z,100559.69
2022-12-04T19:57:14.846Z,100558.84
2022-12-04T19:59:46.297Z,100562.25
2022-12-04T20:02:16.223Z,100559.25
2022-12-04T20:04:45.033Z,100564.09
2022-12-04T20:07:13.657Z,100561.31
2022-12-04T20:09:46.029Z,100559.78
2022-12-04T20:12:16.092Z,100554.50
2022-12-04T20:14:44.945Z,100567.72
2022-12-04T20:17:13.309Z,100562.63
2022-12-04T20:19:42.020Z,100558.38
2022-12-04T20:22:10.478Z,100568.09
2022-12-04T20:24:38.913Z,100564.59
2022-12-04T20:27:07.704Z,100563.03
2022-12-04T20:29:36.700Z,100567.25
2022-12-04T20:32:04.981Z,100558.59
2022-12-04T20:34:36.529Z,100568.31
2022-12-04T20:37:07.312Z,100564.16
2022-12-04T20:39:35.958Z,100564.16
2022-12-04T20:42:04.152Z,100560.13
2022-12-04T20:44:32.872Z,100573.31
2022-12-04T20:47:01.467Z,100576.72
2022-12-04T20:49:30.356Z,100574.16
2022-12-04T20:51:58.802Z,100576.94
2022-12-04T20:54:27.381Z,100579.59
2022-12-04T20:56:56.395Z,100575.87
2022-12-04T20:59:25.505Z,100576.09
2022-12-04T21:01:55.004Z,100573.81
2022-12-04T21:04:23.483Z,100584.41
2022-12-04T21:06:51.818Z,100590.50
2022-12-04T21:09:24.420Z,100587.84
2022-12-04T21:11:56.084Z,100587.06
2022-12-04T21:14:47.657Z,100576.47
2022-12-04T21:17:21.747Z,100582.66
2022-12-04T21:19:50.909Z,100565.59
2022-12-04T21:22:19.786Z,100566.50
2022-12-04T21:24:48.108Z,100573.44
2022-12-04T21:27:21.045Z,100574.47
2022-12-04T21:29:50.334Z,100573.34
2022-12-04T21:32:19.726Z,100574.38
2022-12-04T21:34:48.774Z,100582.00
2022-12-04T21:37:17.110Z,100582.00
2022-12-04T21:39:45.473Z,100570.97
2022-12-04T21:42:32.123Z,100576.94
2022-12-04T21:45:02.229Z,100575.28
2022-12-04T21:47:31.308Z,100578.81
2022-12-04T21:50:00.016Z,100576.88
2022-12-04T21:52:28.808Z,100582.97
2022-12-04T21:54:57.471Z,100586.09
2022-12-04T21:57:27.404Z,100581.84
2022-12-04T21:59:56.705Z,100574.31
2022-12-04T22:02:25.141Z,100573.28
2022-12-04T22:04:53.589Z,100568.13
2022-12-04T22:07:21.649Z,100571.31
2022-12-04T22:09:49.709Z,100574.19
2022-12-04T22:12:49.027Z,100579.28
2022-12-04T22:15:07.013Z,100582.16
2022-12-04T22:17:35.327Z,100586.00
2022-12-04T22:20:06.269Z,100590.16
2022-12-04T22:22:35.527Z,100586.66
2022-12-04T22:25:04.268Z,100583.16
2022-12-04T22:27:32.416Z,100582.59
2022-12-04T22:30:01.207Z,100585.00
2022-12-04T22:32:29.695Z,100592.00
2022-12-04T22:34:57.644Z,100597.91
2022-12-04T22:37:25.928Z,100593.66
2022-12-04T22:39:54.641Z,100572.28
2022-12-04T22:42:22.992Z,100590.34
2022-12-04T22:44:51.197Z,100586.66
2022-12-04T22:47:19.735Z,100581.12
2022-12-04T22:49:47.843Z,100579.47
2022-12-04T22:52:16.075Z,100571.72
2022-12-04T22:54:45.551Z,100568.94
2022-12-04T22:57:13.690Z,100571.53
2022-12-04T22:59:42.078Z,100580.22
2022-12-04T23:02:10.552Z,100568.13
2022-12-04T23:04:39.025Z,100567.41
2022-12-04T23:07:07.121Z,100573.47
2022-12-04T23:09:35.952Z,100571.00
2022-12-04T23:12:04.368Z,100561.50
2022-12-04T23:14:35.623Z,100571.91
2022-12-04T23:17:04.536Z,100554.56
2022-12-04T23:19:32.744Z,100568.41
2022-12-04T23:22:01.171Z,100558.63
2022-12-04T23:24:29.750Z,100567.31
2022-12-04T23:26:58.034Z,100573.47
2022-12-04T23:32:14.690Z,100565.09
2022-12-04T23:34:42.861Z,100562.41
2022-12-04T23:37:10.945Z,100560.69
2022-12-04T23:39:39.287Z,100562.50
2022-12-04T23:42:07.514Z,100563.41
2022-12-04T23:44:35.544Z,100556.16
2022-12-04T23:47:04.260Z,100553.56
2022-12-04T23:49:32.541Z,100549.22
2022-12-04T23:52:00.711Z,100564.81
2022-12-04T23:54:34.861Z,100571.75
2022-12-04T23:57:03.033Z,100570.78
2022-12-04T23:59:31.680Z,100572.37
